createdAt,value
2023-03-22T00:02:23.202Z,10.15
2023-03-22T00:04:50.613Z,10.31
2023-03-22T00:07:17.527Z,10.25
2023-03-22T00:09:44.678Z,10.01
2023-03-22T00:12:11.648Z,10.39
2023-03-22T00:14:38.666Z,10.39
2023-03-22T00:17:05.615Z,10.20
2023-03-22T00:19:34.273Z,10.28
2023-03-22T00:22:01.337Z,10.28
2023-03-22T00:24:28.303Z,10.08
2023-03-22T00:26:55.414Z,10.23
2023-03-22T00:29:24.182Z,10.43
2023-03-22T00:31:52.128Z,9.97
2023-03-22T00:34:19.855Z,10.45
2023-03-22T00:36:46.811Z,10.33
2023-03-22T00:39:13.772Z,10.26
2023-03-22T00:41:40.731Z,9.96
2023-03-22T00:44:07.734Z,10.11
2023-03-22T00:46:34.776Z,9.83
2023-03-22T00:49:01.699Z,10.10
2023-03-22T00:51:28.601Z,10.23
2023-03-22T00:53:55.707Z,10.22
2023-03-22T00:56:23.159Z,10.01
2023-03-22T00:58:53.218Z,10.44
2023-03-22T01:01:20.672Z,9.85
2023-03-22T01:03:50.768Z,10.32
2023-03-22T01:06:18.057Z,10.33
2023-03-22T01:08:44.996Z,10.44
2023-03-22T01:11:12.051Z,10.32
2023-03-22T01:13:39.475Z,10.14
2023-03-22T01:16:06.872Z,10.44
2023-03-22T01:18:33.973Z,10.33
2023-03-22T01:21:00.879Z,10.20
2023-03-22T01:23:27.857Z,10.40
2023-03-22T01:25:54.751Z,10.24
2023-03-22T01:28:21.722Z,10.21
2023-03-22T01:30:48.852Z,9.81
2023-03-22T01:33:16.204Z,9.94
2023-03-22T01:35:43.177Z,10.25
2023-03-22T01:38:10.086Z,10.13
2023-03-22T01:40:37.120Z,9.98
2023-03-22T01:43:04.061Z,10.21
2023-03-22T01:45:38.404Z,10.16
2023-03-22T01:48:21.059Z,10.33
2023-03-22T01:50:56.236Z,10.33
2023-03-22T01:53:23.772Z,10.32
2023-03-22T01:55:51.111Z,10.31
2023-03-22T01:58:19.984Z,10.23
2023-03-22T02:00:47.984Z,10.20
2023-03-22T02:03:15.881Z,10.10
2023-03-22T02:05:42.778Z,10.30
2023-03-22T02:08:10.635Z,10.01
2023-03-22T02:10:37.837Z,10.15
2023-03-22T02:13:54.441Z,10.31
2023-03-22T02:16:57.835Z,10.18
2023-03-22T02:19:30.732Z,10.30
2023-03-22T02:22:21.880Z,10.30
2023-03-22T02:25:10.818Z,10.29
2023-03-22T02:28:11.907Z,10.29
2023-03-22T02:31:03.081Z,10.28
2023-03-22T02:33:41.543Z,10.29
2023-03-22T02:36:33.221Z,9.60
2023-03-22T02:39:12.818Z,10.29
2023-03-22T02:41:46.117Z,10.30
2023-03-22T02:44:36.031Z,10.32
2023-03-22T02:47:14.072Z,10.33
2023-03-22T02:49:47.826Z,10.33
2023-03-22T02:52:36.216Z,10.21
2023-03-22T02:55:07.703Z,10.03
2023-03-22T02:57:39.635Z,10.33
2023-03-22T03:00:13.157Z,10.14
2023-03-22T03:02:46.994Z,10.27
2023-03-22T03:05:14.068Z,10.38
2023-03-22T03:07:43.252Z,9.87
2023-03-22T03:10:10.389Z,10.38
2023-03-22T03:12:37.332Z,10.29
2023-03-22T03:15:17.216Z,10.41
2023-03-22T03:17:56.167Z,10.40
2023-03-22T03:20:46.652Z,10.38
2023-03-22T03:23:55.537Z,10.34
2023-03-22T03:26:39.718Z,10.32
2023-03-22T03:29:15.823Z,10.21
2023-03-22T03:31:51.099Z,10.22
2023-03-22T03:34:30.849Z,10.17
2023-03-22T03:37:05.361Z,10.37
2023-03-22T03:39:33.607Z,10.00
2023-03-22T03:42:01.552Z,10.18
2023-03-22T03:44:29.496Z,10.36
2023-03-22T03:46:56.472Z,10.46
2023-03-22T03:49:23.789Z,10.42
2023-03-22T03:51:52.901Z,10.41
2023-03-22T03:54:23.051Z,10.43
2023-03-22T03:56:53.866Z,10.33
2023-03-22T03:59:21.188Z,10.56
2023-03-22T04:01:52.006Z,10.44
2023-03-22T04:04:27.542Z,10.30
2023-03-22T04:06:59.448Z,10.42
2023-03-22T04:09:28.714Z,10.23
2023-03-22T04:11:56.004Z,10.58
2023-03-22T04:14:23.533Z,10.53
2023-03-22T04:16:50.653Z,10.26
2023-03-22T04:19:17.821Z,10.41
2023-03-22T04:21:44.875Z,10.60
2023-03-22T04:24:12.532Z,10.59
2023-03-22T04:26:39.664Z,10.36
2023-03-22T04:29:06.761Z,10.29
2023-03-22T04:31:36.924Z,10.46
2023-03-22T04:34:06.645Z,10.51
2023-03-22T04:36:36.552Z,10.49
2023-03-22T04:39:05.993Z,10.42
2023-03-22T04:41:33.770Z,10.49
2023-03-22T04:44:03.544Z,10.27
2023-03-22T06:05:07.391Z,10.36
2023-03-22T06:07:34.699Z,10.48
2023-03-22T06:10:01.648Z,10.49
2023-03-22T06:12:30.154Z,10.43
2023-03-22T06:14:57.215Z,10.25
2023-03-22T06:17:24.480Z,10.54
2023-03-22T06:19:53.131Z,10.39
2023-03-22T06:22:20.848Z,10.55
2023-03-22T06:24:48.095Z,9.90
2023-03-22T06:27:15.300Z,10.43
2023-03-22T06:29:42.206Z,10.64
2023-03-22T06:32:09.219Z,10.39
2023-03-22T06:34:36.351Z,10.39
2023-03-22T06:37:03.329Z,10.61
2023-03-22T06:39:30.354Z,10.39
2023-03-22T06:41:57.272Z,10.39
2023-03-22T06:44:24.183Z,10.72
2023-03-22T06:46:51.216Z,10.52
2023-03-22T06:49:19.387Z,10.62
2023-03-22T06:51:46.688Z,10.63
2023-03-22T06:54:16.559Z,10.69
2023-03-22T06:56:43.967Z,10.32
2023-03-22T06:59:10.880Z,10.82
2023-03-22T07:01:37.827Z,10.16
2023-03-22T07:04:04.818Z,10.68
2023-03-22T07:06:32.766Z,10.52
2023-03-22T07:08:59.747Z,10.81
2023-03-22T07:11:26.750Z,10.55
2023-03-22T07:13:54.335Z,10.28
2023-03-22T07:16:21.709Z,10.66
2023-03-22T07:18:48.761Z,10.80
2023-03-22T07:21:16.599Z,10.89
2023-03-22T07:23:43.649Z,10.65
2023-03-22T07:26:10.859Z,10.99
2023-03-22T07:28:37.761Z,10.88
2023-03-22T07:31:06.777Z,10.78
2023-03-22T07:33:33.676Z,10.90
2023-03-22T07:36:00.762Z,10.86
2023-03-22T07:38:27.798Z,10.93
2023-03-22T07:40:55.071Z,10.71
2023-03-22T07:43:22.412Z,10.89
2023-03-22T07:45:50.153Z,11.01
2023-03-22T07:48:18.046Z,10.67
2023-03-22T07:50:48.244Z,10.82
2023-03-22T07:53:16.214Z,10.39
2023-03-22T07:55:43.134Z,10.83
2023-03-22T07:58:10.638Z,10.41
2023-03-22T08:00:37.860Z,10.84
2023-03-22T08:03:06.003Z,10.75
2023-03-22T08:05:33.126Z,11.09
2023-03-22T08:08:00.028Z,10.88
2023-03-22T08:10:26.952Z,11.15
2023-03-22T08:12:53.841Z,10.86
2023-03-22T08:15:22.554Z,11.14
2023-03-22T08:17:49.932Z,10.87
2023-03-22T08:20:18.806Z,11.19
2023-03-22T08:22:48.725Z,11.11
2023-03-22T08:25:18.591Z,11.35
2023-03-22T08:27:48.423Z,11.42
2023-03-22T08:30:16.180Z,11.22
2023-03-22T08:32:43.299Z,11.38
2023-03-22T08:35:10.636Z,11.34
2023-03-22T08:37:37.595Z,11.57
2023-03-22T08:40:07.603Z,11.57
2023-03-22T08:42:34.556Z,11.58
2023-03-22T08:45:01.467Z,11.51
2023-03-22T08:47:28.494Z,11.38
2023-03-22T08:49:55.427Z,11.39
2023-03-22T08:52:22.320Z,11.63
2023-03-22T08:54:51.628Z,11.67
2023-03-22T08:57:18.506Z,11.18
2023-03-22T08:59:46.688Z,11.20
2023-03-22T09:02:13.951Z,11.60
2023-03-22T09:04:40.940Z,11.76
2023-03-22T09:07:07.879Z,11.56
2023-03-22T09:09:34.799Z,11.76
2023-03-22T09:12:01.698Z,11.74
2023-03-22T09:14:28.597Z,11.55
2023-03-22T09:16:55.727Z,11.53
2023-03-22T09:19:22.669Z,11.33
2023-03-22T09:21:50.178Z,11.44
2023-03-22T09:24:17.277Z,11.67
2023-03-22T09:26:44.878Z,11.51
2023-03-22T09:29:11.765Z,11.12
2023-03-22T09:31:38.994Z,11.39
2023-03-22T09:34:06.245Z,11.11
2023-03-22T09:36:33.143Z,11.34
2023-03-22T09:39:00.170Z,11.08
2023-03-22T09:41:29.861Z,11.51
2023-03-22T09:44:01.828Z,11.37
2023-03-22T09:46:41.355Z,11.03
2023-03-22T09:49:13.164Z,11.37
2023-03-22T09:51:48.098Z,11.26
2023-03-22T09:54:21.777Z,11.35
2023-03-22T09:56:56.474Z,11.33
2023-03-22T09:59:51.279Z,11.20
2023-03-22T10:02:36.474Z,11.27
2023-03-22T10:05:41.200Z,11.24
2023-03-22T10:08:20.969Z,11.10
2023-03-22T10:10:47.883Z,11.02
2023-03-22T10:13:24.181Z,11.00
2023-03-22T10:15:53.486Z,11.08
2023-03-22T10:18:32.942Z,11.01
2023-03-22T10:21:10.989Z,10.91
2023-03-22T10:23:51.142Z,11.05
2023-03-22T10:26:22.757Z,11.03
2023-03-22T10:28:59.461Z,10.87
2023-03-22T10:31:28.069Z,10.83
2023-03-22T10:33:56.188Z,10.86
2023-03-22T10:36:24.045Z,10.91
2023-03-22T10:38:56.771Z,10.75
2023-03-22T10:41:24.738Z,10.68
2023-03-22T10:43:56.815Z,10.64
2023-03-22T10:46:26.182Z,10.53
2023-03-22T10:48:57.202Z,10.76
2023-03-22T10:51:39.215Z,10.93
2023-03-22T10:54:06.204Z,10.47
2023-03-22T10:56:33.163Z,10.61
2023-03-22T10:59:03.344Z,10.58
2023-03-22T11:01:37.120Z,10.55
2023-03-22T11:04:04.162Z,10.90
2023-03-22T11:06:34.807Z,10.67
2023-03-22T11:09:12.548Z,10.71
2023-03-22T11:11:48.407Z,10.91
2023-03-22T11:14:17.164Z,10.63
2023-03-22T11:16:56.672Z,10.87
2023-03-22T11:19:27.385Z,10.97
2023-03-22T11:21:54.995Z,10.88
2023-03-22T11:24:22.292Z,11.00
2023-03-22T11:27:02.246Z,10.58
2023-03-22T11:29:30.084Z,11.05
2023-03-22T11:31:59.872Z,10.96
2023-03-22T11:34:30.913Z,11.01
2023-03-22T11:37:01.182Z,11.02
2023-03-22T11:39:29.845Z,11.13
2023-03-22T11:42:01.566Z,10.99
2023-03-22T11:44:34.035Z,11.19
2023-03-22T11:47:03.531Z,11.05
2023-03-22T11:49:47.760Z,11.22
2023-03-22T11:52:26.555Z,11.15
2023-03-22T11:54:54.664Z,11.28
2023-03-22T11:57:30.870Z,11.19
2023-03-22T12:00:22.470Z,11.12
2023-03-22T12:02:52.080Z,11.12
2023-03-22T12:05:21.859Z,11.13
2023-03-22T12:08:10.418Z,11.02
2023-03-22T12:10:39.983Z,11.29
2023-03-22T12:13:22.580Z,11.13
2023-03-22T12:15:53.259Z,11.02
2023-03-22T12:18:27.568Z,10.61
2023-03-22T12:21:01.213Z,11.32
2023-03-22T12:23:32.672Z,11.32
2023-03-22T12:26:10.006Z,10.92
2023-03-22T12:28:55.796Z,11.33
2023-03-22T12:31:28.383Z,11.07
2023-03-22T12:33:55.602Z,11.23
2023-03-22T12:36:35.373Z,11.06
2023-03-22T12:39:02.508Z,11.09
2023-03-22T12:41:34.096Z,11.34
2023-03-22T12:44:16.549Z,11.35
2023-03-22T12:46:50.309Z,11.36
2023-03-22T12:49:55.240Z,11.14
2023-03-22T12:52:41.008Z,11.11
2023-03-22T12:55:21.093Z,11.30
2023-03-22T12:57:51.481Z,11.01
2023-03-22T13:00:18.558Z,11.17
2023-03-22T13:02:56.770Z,11.18
2023-03-22T13:05:27.061Z,11.21
2023-03-22T13:07:55.421Z,10.98
2023-03-22T13:10:31.841Z,11.27
2023-03-22T13:13:24.243Z,11.27
2023-03-22T13:16:09.478Z,11.09
2023-03-22T13:18:36.486Z,11.25
2023-03-22T13:21:20.209Z,11.24
2023-03-22T13:23:54.276Z,11.26
2023-03-22T13:26:23.229Z,11.06
2023-03-22T13:28:57.846Z,10.96
2023-03-22T13:31:41.849Z,11.06
2023-03-22T13:34:38.888Z,11.28
2023-03-22T13:37:11.063Z,11.16
2023-03-22T13:39:39.382Z,10.70
2023-03-22T13:42:21.218Z,11.10
2023-03-22T13:44:59.238Z,11.26
2023-03-22T13:47:47.154Z,10.29
2023-03-22T13:50:18.862Z,11.23
2023-03-22T13:53:01.582Z,11.27
2023-03-22T13:55:46.897Z,11.29
2023-03-22T13:58:48.020Z,11.33
2023-03-22T14:01:25.515Z,11.28
2023-03-22T14:03:52.609Z,11.32
2023-03-22T14:06:23.215Z,11.33
2023-03-22T14:08:52.657Z,10.91
2023-03-22T14:11:32.626Z,11.33
2023-03-22T14:14:11.663Z,11.05
2023-03-22T14:16:50.839Z,11.34
2023-03-22T14:19:20.744Z,11.35
2023-03-22T14:52:28.277Z,11.19
2023-03-22T14:55:03.634Z,11.10
2023-03-22T14:57:36.886Z,11.52
2023-03-22T15:00:16.654Z,11.21
2023-03-22T15:02:54.253Z,11.27
2023-03-22T15:05:26.661Z,10.81
2023-03-22T15:08:06.782Z,11.54
2023-03-22T15:10:33.989Z,11.55
2023-03-22T15:13:01.262Z,11.55
2023-03-22T15:15:36.198Z,11.44
2023-03-22T15:18:03.405Z,11.32
2023-03-22T15:20:34.958Z,11.36
2023-03-22T15:23:23.395Z,11.41
2023-03-22T15:25:51.394Z,10.99
2023-03-22T15:28:21.137Z,11.41
2023-03-22T15:30:52.111Z,11.35
2023-03-22T15:33:36.184Z,11.63
2023-03-22T15:36:03.843Z,11.51
2023-03-22T15:38:43.264Z,11.64
2023-03-22T15:41:45.085Z,11.61
2023-03-22T15:44:33.078Z,11.52
2023-03-22T15:47:15.066Z,11.25
2023-03-22T15:49:49.578Z,11.54
2023-03-22T15:52:26.339Z,11.62
2023-03-22T15:54:56.970Z,11.67
2023-03-22T15:57:34.068Z,11.57
2023-03-22T16:00:18.160Z,11.53
2023-03-22T16:03:07.515Z,11.45
2023-03-22T16:05:42.722Z,11.33
2023-03-22T16:08:11.988Z,11.56
2023-03-22T16:10:40.844Z,11.64
2023-03-22T16:13:22.496Z,11.65
2023-03-22T16:15:49.819Z,11.44
2023-03-22T16:18:18.738Z,11.22
2023-03-22T16:20:46.649Z,11.73
2023-03-22T16:23:19.073Z,11.71
2023-03-22T16:25:46.710Z,11.72
2023-03-22T16:28:13.819Z,11.49
2023-03-22T16:30:41.415Z,11.35
2023-03-22T16:33:13.511Z,11.51
2023-03-22T16:35:42.180Z,11.29
2023-03-22T16:38:23.149Z,11.66
2023-03-22T16:40:52.416Z,11.25
2023-03-22T16:43:19.870Z,11.47
2023-03-22T16:45:48.872Z,11.48
2023-03-22T16:48:19.996Z,11.06
2023-03-22T16:50:48.491Z,11.37
2023-03-22T16:53:18.784Z,11.21
2023-03-22T16:55:48.341Z,11.26
2023-03-22T16:58:16.230Z,11.25
2023-03-22T17:00:43.512Z,11.28
2023-03-22T17:03:12.985Z,11.37
2023-03-22T17:05:40.128Z,11.33
2023-03-22T17:08:15.116Z,11.04
2023-03-22T17:10:42.439Z,11.13
2023-03-22T17:13:11.811Z,11.36
2023-03-22T17:15:41.026Z,11.18
2023-03-22T17:18:11.795Z,11.20
2023-03-22T17:20:39.258Z,11.33
2023-03-22T17:23:08.674Z,11.39
2023-03-22T17:25:37.274Z,11.29
2023-03-22T17:28:05.505Z,11.40
2023-03-22T17:30:32.705Z,10.96
2023-03-22T17:33:01.886Z,10.97
2023-03-22T17:35:33.005Z,11.36
2023-03-22T17:38:02.844Z,11.22
2023-03-22T17:40:37.757Z,11.30
2023-03-22T17:43:18.390Z,11.07
2023-03-22T17:46:27.122Z,11.29
2023-03-22T17:48:34.066Z,11.14
2023-03-22T17:51:01.361Z,11.36
2023-03-22T17:56:44.186Z,10.89
2023-03-22T17:58:52.304Z,11.37
2023-03-22T18:01:22.283Z,11.33
2023-03-22T18:03:50.111Z,11.35
2023-03-22T18:06:17.258Z,11.46
2023-03-22T18:08:44.942Z,11.44
2023-03-22T18:11:15.247Z,11.44
2023-03-22T18:13:44.503Z,11.41
2023-03-22T18:16:11.757Z,11.13
2023-03-22T18:18:38.958Z,11.23
2023-03-22T18:21:08.411Z,11.24
2023-03-22T18:23:35.670Z,11.25
2023-03-22T18:26:06.547Z,11.44
2023-03-22T18:28:36.124Z,11.15
2023-03-22T18:31:03.275Z,11.22
2023-03-22T18:33:30.456Z,11.37
2023-03-22T18:35:57.729Z,11.40
2023-03-22T18:38:56.589Z,10.80
2023-03-22T18:41:34.491Z,11.42
2023-03-22T18:43:59.860Z,11.35
2023-03-22T18:46:26.909Z,11.40
2023-03-22T18:48:54.156Z,11.28
2023-03-22T18:51:21.773Z,11.13
2023-03-22T18:53:48.950Z,11.20
2023-03-22T18:56:19.403Z,11.16
2023-03-22T18:58:46.715Z,11.34
2023-03-22T19:01:14.044Z,11.41
2023-03-22T19:03:41.906Z,11.23
2023-03-22T19:06:13.799Z,11.22
2023-03-22T19:08:40.914Z,11.02
2023-03-22T19:11:08.470Z,11.04
2023-03-22T19:13:40.185Z,11.09
2023-03-22T19:16:22.539Z,11.13
2023-03-22T19:18:49.534Z,11.29
2023-03-22T19:21:26.655Z,11.33
2023-03-22T19:23:59.082Z,11.46
2023-03-22T19:26:26.873Z,11.36
2023-03-22T19:28:57.954Z,11.49
2023-03-22T19:31:27.889Z,11.49
2023-03-22T19:33:56.578Z,11.25
2023-03-22T19:36:23.825Z,11.46
2023-03-22T19:38:50.953Z,11.33
2023-03-22T19:41:45.200Z,10.62
2023-03-22T19:44:06.110Z,11.46
2023-03-22T19:46:33.239Z,11.58
2023-03-22T19:49:02.044Z,11.33
2023-03-22T19:51:29.295Z,11.60
2023-03-22T19:54:25.791Z,11.42
2023-03-22T19:56:46.602Z,10.94
2023-03-22T19:59:16.986Z,11.51
2023-03-22T20:01:45.748Z,11.61
2023-03-22T20:04:13.345Z,11.60
2023-03-22T20:06:41.667Z,11.42
2023-03-22T20:09:08.729Z,11.58
2023-03-22T20:14:06.215Z,11.34
2023-03-22T20:16:34.287Z,11.38
2023-03-22T20:19:01.670Z,11.03
2023-03-22T20:21:28.772Z,11.32
2023-03-22T20:23:55.907Z,11.40
2023-03-22T20:26:22.966Z,11.51
2023-03-22T20:28:50.018Z,11.32
2023-03-22T20:31:17.351Z,11.27
2023-03-22T20:33:45.095Z,11.38
2023-03-22T20:36:13.638Z,11.27
2023-03-22T20:38:43.735Z,10.94
2023-03-22T20:41:16.044Z,11.45
2023-03-22T20:43:43.861Z,10.97
2023-03-22T20:46:11.318Z,11.17
2023-03-22T20:48:39.085Z,11.40
2023-03-22T20:51:06.729Z,11.19
2023-03-22T20:53:33.963Z,11.26
2023-03-22T20:56:01.018Z,11.43
2023-03-22T20:58:28.026Z,11.32
2023-03-22T21:00:55.022Z,11.15
2023-03-22T21:03:22.216Z,11.32
2023-03-22T21:05:49.679Z,10.81
2023-03-22T21:08:16.897Z,11.46
2023-03-22T21:10:46.244Z,11.26
2023-03-22T21:13:13.245Z,10.96
2023-03-22T21:15:43.543Z,11.19
2023-03-22T21:18:14.629Z,11.11
2023-03-22T21:20:41.799Z,11.31
2023-03-22T21:23:08.833Z,11.47
2023-03-22T21:25:36.412Z,11.19
2023-03-22T21:28:03.738Z,11.50
2023-03-22T21:30:31.484Z,11.19
2023-03-22T21:32:58.530Z,11.07
2023-03-22T21:35:25.902Z,11.52
2023-03-22T21:37:58.009Z,11.31
2023-03-22T21:40:26.197Z,11.32
2023-03-22T21:42:58.529Z,11.32
2023-03-22T21:45:27.514Z,11.46
2023-03-22T21:47:58.306Z,11.26
2023-03-22T21:50:26.062Z,11.38
2023-03-22T21:52:53.336Z,11.57
2023-03-22T21:55:20.650Z,11.49
2023-03-22T21:57:47.829Z,11.16
2023-03-22T22:00:19.949Z,11.54
2023-03-22T22:02:50.209Z,11.21
2023-03-22T22:05:18.488Z,11.30
2023-03-22T22:07:48.045Z,11.66
2023-03-22T22:10:22.899Z,11.34
2023-03-22T22:12:52.022Z,11.37
2023-03-22T22:15:19.997Z,11.38
2023-03-22T22:17:47.183Z,11.70
2023-03-22T22:20:15.404Z,11.48
2023-03-22T22:22:44.718Z,11.54
2023-03-22T22:25:14.006Z,11.41
2023-03-22T22:27:41.993Z,11.74
2023-03-22T22:30:12.298Z,11.57
2023-03-22T22:32:41.430Z,11.42
2023-03-22T22:35:09.445Z,11.59
2023-03-22T22:37:37.152Z,11.49
2023-03-22T22:40:11.113Z,11.72
2023-03-22T22:42:39.474Z,11.60
2023-03-22T22:45:07.220Z,11.72
2023-03-22T22:47:34.884Z,11.52
2023-03-22T22:50:02.024Z,11.74
2023-03-22T22:52:35.319Z,11.61
2023-03-22T22:55:04.488Z,11.72
2023-03-22T22:57:31.666Z,11.64
2023-03-22T22:59:58.717Z,11.44
2023-03-22T23:02:26.133Z,11.88
2023-03-22T23:04:53.386Z,11.70
2023-03-22T23:07:21.053Z,11.60
2023-03-22T23:09:48.221Z,11.54
2023-03-22T23:12:18.919Z,11.63
2023-03-22T23:14:49.363Z,11.83
2023-03-22T23:17:19.617Z,11.93
2023-03-22T23:19:54.402Z,11.81
2023-03-22T23:22:23.347Z,11.62
2023-03-22T23:24:50.412Z,11.95
2023-03-22T23:27:18.570Z,11.83
2023-03-22T23:29:47.256Z,11.94
2023-03-22T23:32:16.774Z,11.87
2023-03-22T23:34:46.961Z,11.57
2023-03-22T23:37:15.339Z,11.73
2023-03-22T23:39:42.698Z,11.81
2023-03-22T23:42:19.793Z,11.94
2023-03-22T23:44:46.873Z,11.81
2023-03-22T23:47:13.978Z,11.84
2023-03-22T23:49:41.333Z,11.62
2023-03-22T23:52:08.315Z,11.84
2023-03-22T23:54:35.959Z,11.67
2023-03-22T23:57:03.650Z,11.69
2023-03-22T23:59:31.489Z,11.87
